Main page
METAR-TAF:

METAR-TAF

Airports :

Tehran Imam Khomeini International Airport

Tehran, Iran

latitude: 35-24-58N, longitude: 51-09-08E, elevation: 1007 m

Current weather observation

The report was made 33 minutes ago, at 06:00 UTC
Wind 20 kt from the West/Northwest
Temperature 26°C
Humidity 17%
Pressure 1013 hPa
Visibility: 5000 m
sand

METAR: OIIE 250600Z 30020KT 5000 SA NSC 26/M01 Q1013

Time: 11:03 (06:33 UTC)

Forecast

The report was made 1 hour and 3 minutes ago, at 05:30 UTC
Forecast valid from 25 at 06 UTC to 26 at 12 UTC
Wind 16 kt from the West
Visibility: 5000 m
widespread dust
Temporary
from 25 at 06 UTC to 25 at 14 UTC
Wind 16 kt from the Northwest with gusts up to 28 kt
Visibility: 2000 m
Becoming
from 25 at 18 UTC to 25 at 20 UTC
Visibility: 7000 m
Temporary
from 25 at 20 UTC to 26 at 06 UTC
Wind 16 kt from the Northwest with gusts up to 24 kt
Visibility: 5000 m
sand

TAF: OIIE 250530Z 2506/2612 28016KT 5000 DU NSC TEMPO 2506/2514 32016G28KT 2000 SA/DU BECMG 2518/2520 7000 TEMPO 2520/2606 32016G24KT 5000 SA

Weather observations and forecasts of more than 4000 airports (METAR and TAF reports).

The available stations are represented by yellow and red dots on the map.

Hover mouse over dot to see the name of the station.

Then click to see weather observations and forecasts.

To change the map : click on the green buttons with a black cross to zoom in, on the green button with a dash to zoom out, or on the green arrows for adjacent maps.


METAR-TAF: